Main page
METAR-TAF:

METAR-TAF

Airports :

Kalamata International Airport

Kalamata, Greece

latitude: 37-04N, longitude: 022-01E, elevation: 6 m

Current weather observation

The report was made 27 minutes ago, at 02:20 UTC
Wind 4 kt from variable directions
Temperature 23°C
Humidity 83%
Pressure 1007 hPa
Visibility 10 km or more
Few clouds at a height of 2000 ft

METAR: LGKL 180220Z VRB04KT 9999 FEW020 23/20 Q1007

Time: 05:47 (02:47 UTC)

Forecast

The report was made 47 minutes ago, at 02:00 UTC
Forecast valid from 18 at 03 UTC to 18 at 12 UTC
Wind 5 kt from the North/Northwest
Visibility 10 km or more
Few clouds at a height of 1000 ft
Scattered clouds at a height of 2000 ft
Becoming
from 18 at 07 UTC to 18 at 09 UTC
Wind 15 kt from the North/Northwest
Few clouds at a height of 2500 ft

TAF: LGKL 180200Z 1803/1812 33005KT 9999 FEW010 SCT020 BECMG 1807/1809 33015KT FEW025

Weather observations and forecasts of more than 4000 airports (METAR and TAF reports).

The available stations are represented by yellow and red dots on the map.

Hover mouse over dot to see the name of the station.

Then click to see weather observations and forecasts.

To change the map : click on the green buttons with a black cross to zoom in, on the green button with a dash to zoom out, or on the green arrows for adjacent maps.


METAR-TAF: